sensor_id;sensor_type;location;lat;lon;timestamp;P1;durP1;ratioP1;P2;durP2;ratioP2
55288;SDS011;41154;45.394;5.734;2022-10-16T00:01:26;3.30;;;1.70;;
55288;SDS011;41154;45.394;5.734;2022-10-16T00:03:54;2.15;;;1.48;;
55288;SDS011;41154;45.394;5.734;2022-10-16T00:06:21;4.13;;;1.58;;
55288;SDS011;41154;45.394;5.734;2022-10-16T00:08:47;7.65;;;1.77;;
55288;SDS011;41154;45.394;5.734;2022-10-16T00:11:15;2.20;;;1.50;;
55288;SDS011;41154;45.394;5.734;2022-10-16T00:13:54;2.42;;;1.52;;
55288;SDS011;41154;45.394;5.734;2022-10-16T00:16:21;2.65;;;1.50;;
55288;SDS011;41154;45.394;5.734;2022-10-16T00:18:46;3.30;;;1.90;;
55288;SDS011;41154;45.394;5.734;2022-10-16T00:21:14;3.92;;;2.00;;
55288;SDS011;41154;45.394;5.734;2022-10-16T00:23:41;2.78;;;1.83;;
55288;SDS011;41154;45.394;5.734;2022-10-16T00:26:09;3.97;;;1.85;;
55288;SDS011;41154;45.394;5.734;2022-10-16T00:28:37;3.13;;;1.77;;
55288;SDS011;41154;45.394;5.734;2022-10-16T00:31:09;3.78;;;1.77;;
55288;SDS011;41154;45.394;5.734;2022-10-16T00:33:37;3.20;;;1.80;;
55288;SDS011;41154;45.394;5.734;2022-10-16T00:36:04;2.10;;;1.40;;
55288;SDS011;41154;45.394;5.734;2022-10-16T00:38:32;2.95;;;1.70;;
55288;SDS011;41154;45.394;5.734;2022-10-16T00:40:58;3.35;;;2.00;;
55288;SDS011;41154;45.394;5.734;2022-10-16T00:46:00;4.30;;;2.03;;
55288;SDS011;41154;45.394;5.734;2022-10-16T00:48:27;2.67;;;1.70;;
55288;SDS011;41154;45.394;5.734;2022-10-16T00:50:53;3.33;;;1.55;;
55288;SDS011;41154;45.394;5.734;2022-10-16T00:53:19;7.15;;;2.05;;
55288;SDS011;41154;45.394;5.734;2022-10-16T00:55:46;8.77;;;2.63;;
55288;SDS011;41154;45.394;5.734;2022-10-16T00:58:12;2.05;;;1.50;;
55288;SDS011;41154;45.394;5.734;2022-10-16T01:00:38;3.78;;;1.60;;
55288;SDS011;41154;45.394;5.734;2022-10-16T01:03:21;2.47;;;1.55;;
55288;SDS011;41154;45.394;5.734;2022-10-16T01:05:50;2.53;;;1.48;;
55288;SDS011;41154;45.394;5.734;2022-10-16T01:08:44;6.35;;;1.30;;
55288;SDS011;41154;45.394;5.734;2022-10-16T01:11:39;2.05;;;1.70;;
55288;SDS011;41154;45.394;5.734;2022-10-16T01:17:13;3.10;;;1.40;;
55288;SDS011;41154;45.394;5.734;2022-10-16T01:22:20;2.28;;;1.30;;
55288;SDS011;41154;45.394;5.734;2022-10-16T01:24:51;1.73;;;1.33;;
55288;SDS011;41154;45.394;5.734;2022-10-16T01:27:21;2.50;;;1.10;;
55288;SDS011;41154;45.394;5.734;2022-10-16T01:29:56;4.78;;;1.45;;
55288;SDS011;41154;45.394;5.734;2022-10-16T01:32:33;1.77;;;1.05;;
55288;SDS011;41154;45.394;5.734;2022-10-16T01:35:13;3.97;;;1.33;;
55288;SDS011;41154;45.394;5.734;2022-10-16T01:37:46;4.13;;;1.30;;
55288;SDS011;41154;45.394;5.734;2022-10-16T01:40:14;3.00;;;1.40;;
55288;SDS011;41154;45.394;5.734;2022-10-16T01:42:52;2.80;;;1.48;;
55288;SDS011;41154;45.394;5.734;2022-10-16T01:45:24;2.40;;;1.48;;
55288;SDS011;41154;45.394;5.734;2022-10-16T01:47:53;2.10;;;1.10;;
55288;SDS011;41154;45.394;5.734;2022-10-16T01:50:20;2.40;;;1.45;;
55288;SDS011;41154;45.394;5.734;2022-10-16T01:52:51;2.45;;;1.30;;
55288;SDS011;41154;45.394;5.734;2022-10-16T01:55:27;2.15;;;1.20;;
55288;SDS011;41154;45.394;5.734;2022-10-16T01:57:58;1.75;;;1.30;;
55288;SDS011;41154;45.394;5.734;2022-10-16T02:00:30;2.08;;;1.10;;
55288;SDS011;41154;45.394;5.734;2022-10-16T02:02:57;1.92;;;1.33;;
55288;SDS011;41154;45.394;5.734;2022-10-16T02:06:00;2.72;;;1.40;;
55288;SDS011;41154;45.394;5.734;2022-10-16T02:08:20;2.55;;;1.30;;
55288;SDS011;41154;45.394;5.734;2022-10-16T02:10:49;1.63;;;1.20;;
55288;SDS011;41154;45.394;5.734;2022-10-16T02:13:22;1.83;;;1.10;;
55288;SDS011;41154;45.394;5.734;2022-10-16T02:15:52;2.13;;;1.33;;
55288;SDS011;41154;45.394;5.734;2022-10-16T02:18:20;1.48;;;1.10;;
55288;SDS011;41154;45.394;5.734;2022-10-16T02:20:48;5.10;;;1.38;;
55288;SDS011;41154;45.394;5.734;2022-10-16T02:23:29;1.30;;;0.90;;
55288;SDS011;41154;45.394;5.734;2022-10-16T02:26:03;2.28;;;1.15;;
55288;SDS011;41154;45.394;5.734;2022-10-16T02:28:40;1.67;;;1.15;;
55288;SDS011;41154;45.394;5.734;2022-10-16T02:31:11;1.65;;;1.08;;
55288;SDS011;41154;45.394;5.734;2022-10-16T02:33:39;1.63;;;1.20;;
55288;SDS011;41154;45.394;5.734;2022-10-16T02:36:07;2.58;;;1.42;;
55288;SDS011;41154;45.394;5.734;2022-10-16T02:38:33;2.33;;;1.45;;
55288;SDS011;41154;45.394;5.734;2022-10-16T02:40:59;1.38;;;1.10;;
55288;SDS011;41154;45.394;5.734;2022-10-16T02:43:25;3.25;;;1.10;;
55288;SDS011;41154;45.394;5.734;2022-10-16T02:45:51;1.73;;;1.05;;
55288;SDS011;41154;45.394;5.734;2022-10-16T02:48:17;1.65;;;1.20;;
55288;SDS011;41154;45.394;5.734;2022-10-16T02:50:43;3.47;;;1.58;;
55288;SDS011;41154;45.394;5.734;2022-10-16T02:53:09;2.13;;;1.33;;
55288;SDS011;41154;45.394;5.734;2022-10-16T02:55:34;2.60;;;1.23;;
55288;SDS011;41154;45.394;5.734;2022-10-16T02:58:00;5.93;;;1.35;;
55288;SDS011;41154;45.394;5.734;2022-10-16T03:00:26;5.03;;;1.52;;
55288;SDS011;41154;45.394;5.734;2022-10-16T03:02:52;2.15;;;1.20;;
55288;SDS011;41154;45.394;5.734;2022-10-16T03:05:18;3.08;;;1.50;;
55288;SDS011;41154;45.394;5.734;2022-10-16T03:07:43;3.45;;;1.60;;
55288;SDS011;41154;45.394;5.734;2022-10-16T03:10:09;2.70;;;1.38;;
55288;SDS011;41154;45.394;5.734;2022-10-16T03:12:35;4.38;;;1.65;;
55288;SDS011;41154;45.394;5.734;2022-10-16T03:15:01;4.28;;;1.80;;
55288;SDS011;41154;45.394;5.734;2022-10-16T03:17:28;3.35;;;1.30;;
55288;SDS011;41154;45.394;5.734;2022-10-16T03:19:56;2.28;;;1.50;;
55288;SDS011;41154;45.394;5.734;2022-10-16T03:22:23;2.55;;;1.27;;
55288;SDS011;41154;45.394;5.734;2022-10-16T03:24:50;1.90;;;1.30;;
55288;SDS011;41154;45.394;5.734;2022-10-16T03:27:16;3.17;;;1.35;;
55288;SDS011;41154;45.394;5.734;2022-10-16T03:29:42;3.42;;;1.60;;
55288;SDS011;41154;45.394;5.734;2022-10-16T03:32:14;2.95;;;1.38;;
55288;SDS011;41154;45.394;5.734;2022-10-16T03:34:39;2.50;;;1.50;;
55288;SDS011;41154;45.394;5.734;2022-10-16T03:37:05;3.55;;;1.85;;
55288;SDS011;41154;45.394;5.734;2022-10-16T03:39:31;3.92;;;1.83;;
55288;SDS011;41154;45.394;5.734;2022-10-16T03:41:57;7.03;;;1.98;;
55288;SDS011;41154;45.394;5.734;2022-10-16T03:44:23;5.85;;;2.50;;
55288;SDS011;41154;45.394;5.734;2022-10-16T03:46:49;7.32;;;2.95;;
55288;SDS011;41154;45.394;5.734;2022-10-16T03:49:14;7.38;;;3.17;;
55288;SDS011;41154;45.394;5.734;2022-10-16T03:51:40;4.22;;;2.55;;
55288;SDS011;41154;45.394;5.734;2022-10-16T03:54:06;5.50;;;2.03;;
55288;SDS011;41154;45.394;5.734;2022-10-16T03:56:32;3.42;;;2.20;;
55288;SDS011;41154;45.394;5.734;2022-10-16T03:58:58;3.90;;;2.03;;
55288;SDS011;41154;45.394;5.734;2022-10-16T04:01:24;3.63;;;2.30;;
55288;SDS011;41154;45.394;5.734;2022-10-16T04:03:50;4.10;;;2.03;;
55288;SDS011;41154;45.394;5.734;2022-10-16T04:06:16;4.15;;;2.55;;
55288;SDS011;41154;45.394;5.734;2022-10-16T04:08:43;3.00;;;1.73;;
55288;SDS011;41154;45.394;5.734;2022-10-16T04:11:09;4.90;;;1.85;;
55288;SDS011;41154;45.394;5.734;2022-10-16T04:13:35;3.22;;;1.90;;
55288;SDS011;41154;45.394;5.734;2022-10-16T04:16:01;2.45;;;1.52;;
55288;SDS011;41154;45.394;5.734;2022-10-16T04:18:27;3.20;;;1.88;;
55288;SDS011;41154;45.394;5.734;2022-10-16T04:20:53;2.75;;;1.60;;
55288;SDS011;41154;45.394;5.734;2022-10-16T04:23:20;2.88;;;1.65;;
55288;SDS011;41154;45.394;5.734;2022-10-16T04:25:46;5.90;;;2.03;;
55288;SDS011;41154;45.394;5.734;2022-10-16T04:28:11;2.67;;;1.95;;
55288;SDS011;41154;45.394;5.734;2022-10-16T04:30:38;3.83;;;1.88;;
55288;SDS011;41154;45.394;5.734;2022-10-16T04:33:04;4.85;;;2.17;;
55288;SDS011;41154;45.394;5.734;2022-10-16T04:35:30;4.20;;;2.33;;
55288;SDS011;41154;45.394;5.734;2022-10-16T04:37:58;3.58;;;2.03;;
55288;SDS011;41154;45.394;5.734;2022-10-16T04:40:24;7.40;;;1.98;;
55288;SDS011;41154;45.394;5.734;2022-10-16T04:42:50;2.72;;;1.95;;
55288;SDS011;41154;45.394;5.734;2022-10-16T04:45:16;3.08;;;2.10;;
55288;SDS011;41154;45.394;5.734;2022-10-16T04:47:41;3.08;;;2.28;;
55288;SDS011;41154;45.394;5.734;2022-10-16T04:50:07;6.68;;;2.38;;
55288;SDS011;41154;45.394;5.734;2022-10-16T04:52:33;4.45;;;2.47;;
55288;SDS011;41154;45.394;5.734;2022-10-16T04:54:59;5.35;;;2.05;;
55288;SDS011;41154;45.394;5.734;2022-10-16T04:57:28;2.97;;;2.20;;
55288;SDS011;41154;45.394;5.734;2022-10-16T04:59:55;4.32;;;2.28;;
55288;SDS011;41154;45.394;5.734;2022-10-16T05:02:21;2.90;;;1.73;;
55288;SDS011;41154;45.394;5.734;2022-10-16T05:04:46;4.55;;;2.20;;
55288;SDS011;41154;45.394;5.734;2022-10-16T05:07:12;4.68;;;2.40;;
55288;SDS011;41154;45.394;5.734;2022-10-16T05:09:38;3.60;;;2.22;;
55288;SDS011;41154;45.394;5.734;2022-10-16T05:12:04;5.28;;;1.85;;
55288;SDS011;41154;45.394;5.734;2022-10-16T05:14:29;3.72;;;2.38;;
55288;SDS011;41154;45.394;5.734;2022-10-16T05:16:56;3.97;;;1.90;;
55288;SDS011;41154;45.394;5.734;2022-10-16T05:19:21;3.35;;;2.17;;
55288;SDS011;41154;45.394;5.734;2022-10-16T05:21:47;2.83;;;2.03;;
55288;SDS011;41154;45.394;5.734;2022-10-16T05:24:13;4.85;;;2.17;;
55288;SDS011;41154;45.394;5.734;2022-10-16T05:26:39;6.70;;;2.20;;
55288;SDS011;41154;45.394;5.734;2022-10-16T05:29:05;5.40;;;3.08;;
55288;SDS011;41154;45.394;5.734;2022-10-16T05:31:30;4.43;;;2.83;;
55288;SDS011;41154;45.394;5.734;2022-10-16T05:33:59;6.30;;;3.25;;
55288;SDS011;41154;45.394;5.734;2022-10-16T05:36:25;6.85;;;3.28;;
55288;SDS011;41154;45.394;5.734;2022-10-16T05:38:51;10.25;;;4.50;;
55288;SDS011;41154;45.394;5.734;2022-10-16T05:41:17;3.58;;;2.65;;
55288;SDS011;41154;45.394;5.734;2022-10-16T05:43:49;3.33;;;2.20;;
55288;SDS011;41154;45.394;5.734;2022-10-16T05:46:15;9.65;;;2.15;;
55288;SDS011;41154;45.394;5.734;2022-10-16T05:48:42;4.40;;;2.22;;
55288;SDS011;41154;45.394;5.734;2022-10-16T05:51:12;3.60;;;2.45;;
55288;SDS011;41154;45.394;5.734;2022-10-16T05:53:39;3.65;;;2.42;;
55288;SDS011;41154;45.394;5.734;2022-10-16T05:56:06;5.10;;;1.90;;
55288;SDS011;41154;45.394;5.734;2022-10-16T05:58:35;3.78;;;2.13;;
55288;SDS011;41154;45.394;5.734;2022-10-16T06:01:06;3.40;;;2.40;;
55288;SDS011;41154;45.394;5.734;2022-10-16T06:03:37;4.55;;;2.65;;
55288;SDS011;41154;45.394;5.734;2022-10-16T06:06:10;5.72;;;3.63;;
55288;SDS011;41154;45.394;5.734;2022-10-16T06:08:40;7.32;;;3.42;;
55288;SDS011;41154;45.394;5.734;2022-10-16T06:11:08;6.05;;;3.10;;
55288;SDS011;41154;45.394;5.734;2022-10-16T06:13:39;5.68;;;3.85;;
55288;SDS011;41154;45.394;5.734;2022-10-16T06:16:08;14.10;;;3.92;;
55288;SDS011;41154;45.394;5.734;2022-10-16T06:18:35;5.40;;;3.03;;
55288;SDS011;41154;45.394;5.734;2022-10-16T06:21:06;6.47;;;3.05;;
55288;SDS011;41154;45.394;5.734;2022-10-16T06:23:36;4.45;;;2.72;;
55288;SDS011;41154;45.394;5.734;2022-10-16T06:26:12;6.93;;;2.90;;
55288;SDS011;41154;45.394;5.734;2022-10-16T06:28:40;4.53;;;3.05;;
55288;SDS011;41154;45.394;5.734;2022-10-16T06:31:06;9.73;;;4.45;;
55288;SDS011;41154;45.394;5.734;2022-10-16T06:33:34;7.03;;;4.10;;
55288;SDS011;41154;45.394;5.734;2022-10-16T06:36:11;9.82;;;5.40;;
55288;SDS011;41154;45.394;5.734;2022-10-16T06:38:39;9.30;;;5.32;;
55288;SDS011;41154;45.394;5.734;2022-10-16T06:41:06;7.55;;;4.78;;
55288;SDS011;41154;45.394;5.734;2022-10-16T06:43:33;8.63;;;5.03;;
55288;SDS011;41154;45.394;5.734;2022-10-16T06:46:00;5.85;;;3.20;;
55288;SDS011;41154;45.394;5.734;2022-10-16T06:48:28;6.00;;;3.30;;
55288;SDS011;41154;45.394;5.734;2022-10-16T06:51:16;6.38;;;3.10;;
55288;SDS011;41154;45.394;5.734;2022-10-16T06:53:42;5.03;;;3.10;;
55288;SDS011;41154;45.394;5.734;2022-10-16T06:56:11;5.70;;;3.47;;
55288;SDS011;41154;45.394;5.734;2022-10-16T06:58:46;5.68;;;3.80;;
55288;SDS011;41154;45.394;5.734;2022-10-16T07:01:13;6.20;;;4.00;;
55288;SDS011;41154;45.394;5.734;2022-10-16T07:03:40;5.45;;;3.33;;
55288;SDS011;41154;45.394;5.734;2022-10-16T07:06:08;6.95;;;3.85;;
55288;SDS011;41154;45.394;5.734;2022-10-16T07:08:51;9.68;;;4.32;;
55288;SDS011;41154;45.394;5.734;2022-10-16T07:11:18;6.80;;;3.78;;
55288;SDS011;41154;45.394;5.734;2022-10-16T07:13:46;6.10;;;3.17;;
55288;SDS011;41154;45.394;5.734;2022-10-16T07:16:14;7.07;;;3.65;;
55288;SDS011;41154;45.394;5.734;2022-10-16T07:18:44;9.20;;;4.07;;
55288;SDS011;41154;45.394;5.734;2022-10-16T07:21:13;6.05;;;3.53;;
55288;SDS011;41154;45.394;5.734;2022-10-16T07:23:40;7.85;;;4.13;;
55288;SDS011;41154;45.394;5.734;2022-10-16T07:26:08;8.40;;;4.43;;
55288;SDS011;41154;45.394;5.734;2022-10-16T07:28:35;12.35;;;5.93;;
55288;SDS011;41154;45.394;5.734;2022-10-16T07:31:05;8.63;;;5.07;;
55288;SDS011;41154;45.394;5.734;2022-10-16T07:33:34;10.52;;;5.65;;
55288;SDS011;41154;45.394;5.734;2022-10-16T07:39:28;9.07;;;4.95;;
55288;SDS011;41154;45.394;5.734;2022-10-16T07:41:54;7.07;;;4.07;;
55288;SDS011;41154;45.394;5.734;2022-10-16T07:44:19;6.80;;;3.72;;
55288;SDS011;41154;45.394;5.734;2022-10-16T07:46:45;5.22;;;3.22;;
55288;SDS011;41154;45.394;5.734;2022-10-16T07:49:11;14.35;;;6.43;;
55288;SDS011;41154;45.394;5.734;2022-10-16T07:51:37;13.65;;;6.75;;
55288;SDS011;41154;45.394;5.734;2022-10-16T07:54:04;12.43;;;7.50;;
55288;SDS011;41154;45.394;5.734;2022-10-16T07:56:30;12.40;;;6.32;;
55288;SDS011;41154;45.394;5.734;2022-10-16T07:58:57;9.07;;;5.05;;
55288;SDS011;41154;45.394;5.734;2022-10-16T08:01:23;9.88;;;5.55;;
55288;SDS011;41154;45.394;5.734;2022-10-16T08:03:49;6.03;;;4.03;;
55288;SDS011;41154;45.394;5.734;2022-10-16T08:06:16;7.47;;;4.57;;
55288;SDS011;41154;45.394;5.734;2022-10-16T08:08:43;5.25;;;4.13;;
55288;SDS011;41154;45.394;5.734;2022-10-16T08:11:09;9.43;;;5.32;;
55288;SDS011;41154;45.394;5.734;2022-10-16T08:13:35;7.93;;;4.93;;
55288;SDS011;41154;45.394;5.734;2022-10-16T08:16:01;7.45;;;4.60;;
55288;SDS011;41154;45.394;5.734;2022-10-16T08:18:28;8.30;;;4.55;;
55288;SDS011;41154;45.394;5.734;2022-10-16T08:20:55;8.30;;;4.28;;
55288;SDS011;41154;45.394;5.734;2022-10-16T08:23:22;3.72;;;2.88;;
55288;SDS011;41154;45.394;5.734;2022-10-16T08:25:48;3.65;;;2.70;;
55288;SDS011;41154;45.394;5.734;2022-10-16T08:28:14;5.13;;;3.45;;
55288;SDS011;41154;45.394;5.734;2022-10-16T08:30:40;4.68;;;3.22;;
55288;SDS011;41154;45.394;5.734;2022-10-16T08:33:06;4.18;;;2.80;;
55288;SDS011;41154;45.394;5.734;2022-10-16T08:35:32;4.88;;;3.03;;
55288;SDS011;41154;45.394;5.734;2022-10-16T08:37:58;4.60;;;2.65;;
55288;SDS011;41154;45.394;5.734;2022-10-16T08:40:24;5.32;;;2.75;;
55288;SDS011;41154;45.394;5.734;2022-10-16T08:43:00;2.78;;;2.40;;
55288;SDS011;41154;45.394;5.734;2022-10-16T08:50:37;2.95;;;2.22;;
55288;SDS011;41154;45.394;5.734;2022-10-16T08:53:04;5.18;;;2.60;;
55288;SDS011;41154;45.394;5.734;2022-10-16T08:55:41;3.28;;;2.20;;
55288;SDS011;41154;45.394;5.734;2022-10-16T09:00:38;3.42;;;2.50;;
55288;SDS011;41154;45.394;5.734;2022-10-16T09:13:57;3.78;;;2.10;;
55288;SDS011;41154;45.394;5.734;2022-10-16T09:16:49;1.83;;;1.30;;
55288;SDS011;41154;45.394;5.734;2022-10-16T09:19:33;1.70;;;1.42;;
55288;SDS011;41154;45.394;5.734;2022-10-16T09:22:16;2.78;;;1.70;;
55288;SDS011;41154;45.394;5.734;2022-10-16T09:24:43;2.55;;;1.80;;
55288;SDS011;41154;45.394;5.734;2022-10-16T09:27:12;2.35;;;1.70;;
55288;SDS011;41154;45.394;5.734;2022-10-16T09:29:40;3.40;;;2.13;;
55288;SDS011;41154;45.394;5.734;2022-10-16T09:32:11;2.35;;;1.98;;
55288;SDS011;41154;45.394;5.734;2022-10-16T09:34:52;2.78;;;1.98;;
55288;SDS011;41154;45.394;5.734;2022-10-16T09:37:22;3.20;;;1.90;;
55288;SDS011;41154;45.394;5.734;2022-10-16T09:39:53;3.15;;;2.10;;
55288;SDS011;41154;45.394;5.734;2022-10-16T09:42:52;3.15;;;2.30;;
55288;SDS011;41154;45.394;5.734;2022-10-16T09:45:21;2.92;;;2.00;;
55288;SDS011;41154;45.394;5.734;2022-10-16T09:47:49;3.50;;;2.17;;
55288;SDS011;41154;45.394;5.734;2022-10-16T09:50:22;4.03;;;2.13;;
55288;SDS011;41154;45.394;5.734;2022-10-16T09:53:14;6.47;;;1.80;;
55288;SDS011;41154;45.394;5.734;2022-10-16T09:55:50;4.18;;;2.05;;
55288;SDS011;41154;45.394;5.734;2022-10-16T09:58:17;4.13;;;2.25;;
55288;SDS011;41154;45.394;5.734;2022-10-16T10:00:52;2.90;;;1.95;;
55288;SDS011;41154;45.394;5.734;2022-10-16T10:03:25;3.35;;;1.88;;
55288;SDS011;41154;45.394;5.734;2022-10-16T10:06:15;2.05;;;1.50;;
55288;SDS011;41154;45.394;5.734;2022-10-16T10:08:57;3.83;;;2.00;;
55288;SDS011;41154;45.394;5.734;2022-10-16T10:11:36;2.67;;;1.90;;
55288;SDS011;41154;45.394;5.734;2022-10-16T10:14:04;3.40;;;1.52;;
55288;SDS011;41154;45.394;5.734;2022-10-16T10:16:31;4.38;;;1.98;;
55288;SDS011;41154;45.394;5.734;2022-10-16T10:19:00;2.50;;;1.73;;
55288;SDS011;41154;45.394;5.734;2022-10-16T10:21:26;2.10;;;1.58;;
55288;SDS011;41154;45.394;5.734;2022-10-16T10:23:55;2.80;;;1.52;;
55288;SDS011;41154;45.394;5.734;2022-10-16T10:26:23;4.97;;;1.88;;
55288;SDS011;41154;45.394;5.734;2022-10-16T10:29:37;1.60;;;1.25;;
55288;SDS011;41154;45.394;5.734;2022-10-16T10:43:02;3.55;;;2.00;;
55288;SDS011;41154;45.394;5.734;2022-10-16T10:45:43;1.80;;;1.52;;
55288;SDS011;41154;45.394;5.734;2022-10-16T10:59:37;2.10;;;1.50;;
55288;SDS011;41154;45.394;5.734;2022-10-16T11:02:26;4.80;;;1.80;;
55288;SDS011;41154;45.394;5.734;2022-10-16T11:15:58;1.65;;;1.20;;
55288;SDS011;41154;45.394;5.734;2022-10-16T11:21:21;1.63;;;1.40;;
55288;SDS011;41154;45.394;5.734;2022-10-16T11:24:06;2.05;;;1.50;;
55288;SDS011;41154;45.394;5.734;2022-10-16T11:26:44;2.47;;;1.40;;
55288;SDS011;41154;45.394;5.734;2022-10-16T11:29:26;1.92;;;1.42;;
55288;SDS011;41154;45.394;5.734;2022-10-16T11:32:06;2.97;;;1.58;;
55288;SDS011;41154;45.394;5.734;2022-10-16T11:34:46;3.08;;;1.70;;
55288;SDS011;41154;45.394;5.734;2022-10-16T11:37:19;2.27;;;1.83;;
55288;SDS011;41154;45.394;5.734;2022-10-16T11:39:49;1.60;;;1.50;;
55288;SDS011;41154;45.394;5.734;2022-10-16T11:42:35;3.10;;;1.42;;
55288;SDS011;41154;45.394;5.734;2022-10-16T11:45:24;2.20;;;1.63;;
55288;SDS011;41154;45.394;5.734;2022-10-16T11:50:34;2.67;;;1.38;;
55288;SDS011;41154;45.394;5.734;2022-10-16T11:53:58;1.35;;;1.02;;
55288;SDS011;41154;45.394;5.734;2022-10-16T11:56:27;2.50;;;1.48;;
55288;SDS011;41154;45.394;5.734;2022-10-16T11:58:59;2.85;;;1.55;;
55288;SDS011;41154;45.394;5.734;2022-10-16T12:01:33;3.78;;;1.45;;
55288;SDS011;41154;45.394;5.734;2022-10-16T12:09:38;1.95;;;1.35;;
55288;SDS011;41154;45.394;5.734;2022-10-16T12:20:12;1.25;;;1.13;;
55288;SDS011;41154;45.394;5.734;2022-10-16T12:23:01;1.63;;;1.15;;
55288;SDS011;41154;45.394;5.734;2022-10-16T12:25:36;1.90;;;1.60;;
55288;SDS011;41154;45.394;5.734;2022-10-16T12:30:41;2.45;;;1.40;;
55288;SDS011;41154;45.394;5.734;2022-10-16T12:33:24;3.30;;;1.67;;
55288;SDS011;41154;45.394;5.734;2022-10-16T12:35:55;1.88;;;1.60;;
55288;SDS011;41154;45.394;5.734;2022-10-16T12:38:27;2.47;;;1.25;;
55288;SDS011;41154;45.394;5.734;2022-10-16T12:46:04;2.78;;;1.45;;
55288;SDS011;41154;45.394;5.734;2022-10-16T12:48:46;2.08;;;1.50;;
55288;SDS011;41154;45.394;5.734;2022-10-16T12:54:04;4.10;;;1.80;;
55288;SDS011;41154;45.394;5.734;2022-10-16T12:56:45;1.67;;;1.30;;
55288;SDS011;41154;45.394;5.734;2022-10-16T12:59:46;1.90;;;1.27;;
55288;SDS011;41154;45.394;5.734;2022-10-16T13:02:34;2.63;;;1.40;;
55288;SDS011;41154;45.394;5.734;2022-10-16T13:08:41;2.55;;;1.58;;
55288;SDS011;41154;45.394;5.734;2022-10-16T13:28:07;2.35;;;1.30;;
55288;SDS011;41154;45.394;5.734;2022-10-16T13:30:41;2.25;;;1.08;;
55288;SDS011;41154;45.394;5.734;2022-10-16T13:35:49;1.35;;;1.15;;
55288;SDS011;41154;45.394;5.734;2022-10-16T13:38:17;3.53;;;1.35;;
55288;SDS011;41154;45.394;5.734;2022-10-16T13:40:51;1.55;;;1.10;;
55288;SDS011;41154;45.394;5.734;2022-10-16T13:43:25;1.13;;;1.00;;
55288;SDS011;41154;45.394;5.734;2022-10-16T13:46:04;1.77;;;1.20;;
55288;SDS011;41154;45.394;5.734;2022-10-16T13:48:32;1.90;;;1.30;;
55288;SDS011;41154;45.394;5.734;2022-10-16T13:51:18;3.17;;;1.08;;
55288;SDS011;41154;45.394;5.734;2022-10-16T13:53:44;1.58;;;1.20;;
55288;SDS011;41154;45.394;5.734;2022-10-16T13:56:14;3.42;;;1.30;;
55288;SDS011;41154;45.394;5.734;2022-10-16T13:58:43;3.20;;;1.40;;
55288;SDS011;41154;45.394;5.734;2022-10-16T14:01:19;2.42;;;1.20;;
55288;SDS011;41154;45.394;5.734;2022-10-16T14:03:50;2.05;;;1.00;;
55288;SDS011;41154;45.394;5.734;2022-10-16T14:06:20;1.60;;;1.10;;
55288;SDS011;41154;45.394;5.734;2022-10-16T14:08:49;1.83;;;1.00;;
55288;SDS011;41154;45.394;5.734;2022-10-16T14:11:26;2.38;;;1.15;;
55288;SDS011;41154;45.394;5.734;2022-10-16T14:13:53;1.35;;;0.90;;
55288;SDS011;41154;45.394;5.734;2022-10-16T14:16:20;1.63;;;1.00;;
55288;SDS011;41154;45.394;5.734;2022-10-16T14:18:58;1.08;;;0.82;;
55288;SDS011;41154;45.394;5.734;2022-10-16T14:21:26;0.95;;;0.85;;
55288;SDS011;41154;45.394;5.734;2022-10-16T14:23:53;1.90;;;1.17;;
55288;SDS011;41154;45.394;5.734;2022-10-16T14:26:21;1.77;;;0.70;;
55288;SDS011;41154;45.394;5.734;2022-10-16T14:28:49;2.42;;;0.90;;
55288;SDS011;41154;45.394;5.734;2022-10-16T14:31:34;1.38;;;0.85;;
55288;SDS011;41154;45.394;5.734;2022-10-16T14:34:02;1.25;;;1.02;;
55288;SDS011;41154;45.394;5.734;2022-10-16T14:36:29;1.35;;;0.98;;
55288;SDS011;41154;45.394;5.734;2022-10-16T14:41:24;2.70;;;1.05;;
55288;SDS011;41154;45.394;5.734;2022-10-16T14:43:51;1.10;;;1.00;;
55288;SDS011;41154;45.394;5.734;2022-10-16T14:46:20;1.48;;;1.05;;
55288;SDS011;41154;45.394;5.734;2022-10-16T14:48:54;1.48;;;1.23;;
55288;SDS011;41154;45.394;5.734;2022-10-16T14:51:43;1.90;;;1.10;;
55288;SDS011;41154;45.394;5.734;2022-10-16T14:54:10;3.20;;;1.27;;
55288;SDS011;41154;45.394;5.734;2022-10-16T14:56:47;1.58;;;1.48;;
55288;SDS011;41154;45.394;5.734;2022-10-16T14:59:27;2.50;;;1.50;;
55288;SDS011;41154;45.394;5.734;2022-10-16T15:01:56;2.75;;;1.15;;
55288;SDS011;41154;45.394;5.734;2022-10-16T15:04:22;5.65;;;1.30;;
55288;SDS011;41154;45.394;5.734;2022-10-16T15:06:48;2.97;;;1.38;;
55288;SDS011;41154;45.394;5.734;2022-10-16T15:09:14;1.58;;;1.30;;
55288;SDS011;41154;45.394;5.734;2022-10-16T15:11:39;3.72;;;1.30;;
55288;SDS011;41154;45.394;5.734;2022-10-16T15:14:08;2.83;;;1.60;;
55288;SDS011;41154;45.394;5.734;2022-10-16T15:16:36;1.38;;;1.27;;
55288;SDS011;41154;45.394;5.734;2022-10-16T15:19:02;2.15;;;1.52;;
55288;SDS011;41154;45.394;5.734;2022-10-16T15:21:29;6.07;;;1.60;;
55288;SDS011;41154;45.394;5.734;2022-10-16T15:23:57;4.43;;;1.90;;
55288;SDS011;41154;45.394;5.734;2022-10-16T15:26:24;1.83;;;1.40;;
55288;SDS011;41154;45.394;5.734;2022-10-16T15:28:51;3.83;;;1.42;;
55288;SDS011;41154;45.394;5.734;2022-10-16T15:31:17;3.15;;;1.70;;
55288;SDS011;41154;45.394;5.734;2022-10-16T15:33:42;2.58;;;1.50;;
55288;SDS011;41154;45.394;5.734;2022-10-16T15:36:09;2.50;;;1.55;;
55288;SDS011;41154;45.394;5.734;2022-10-16T15:38:34;2.80;;;1.58;;
55288;SDS011;41154;45.394;5.734;2022-10-16T15:41:00;2.13;;;1.45;;
55288;SDS011;41154;45.394;5.734;2022-10-16T15:43:26;1.80;;;1.40;;
55288;SDS011;41154;45.394;5.734;2022-10-16T15:46:00;1.77;;;1.50;;
55288;SDS011;41154;45.394;5.734;2022-10-16T15:48:29;1.90;;;1.67;;
55288;SDS011;41154;45.394;5.734;2022-10-16T15:50:55;1.88;;;1.70;;
55288;SDS011;41154;45.394;5.734;2022-10-16T15:53:21;1.92;;;1.42;;
55288;SDS011;41154;45.394;5.734;2022-10-16T15:55:47;3.28;;;1.50;;
55288;SDS011;41154;45.394;5.734;2022-10-16T15:58:13;2.08;;;1.30;;
55288;SDS011;41154;45.394;5.734;2022-10-16T16:00:38;1.58;;;1.33;;
55288;SDS011;41154;45.394;5.734;2022-10-16T16:03:04;3.42;;;1.42;;
55288;SDS011;41154;45.394;5.734;2022-10-16T16:05:30;3.25;;;1.60;;
55288;SDS011;41154;45.394;5.734;2022-10-16T16:07:56;1.70;;;1.38;;
55288;SDS011;41154;45.394;5.734;2022-10-16T16:10:22;1.98;;;1.35;;
55288;SDS011;41154;45.394;5.734;2022-10-16T16:12:48;2.22;;;1.40;;
55288;SDS011;41154;45.394;5.734;2022-10-16T16:15:17;2.60;;;1.48;;
55288;SDS011;41154;45.394;5.734;2022-10-16T16:17:47;5.82;;;1.50;;
55288;SDS011;41154;45.394;5.734;2022-10-16T16:20:13;2.05;;;1.30;;
55288;SDS011;41154;45.394;5.734;2022-10-16T16:22:39;3.80;;;1.40;;
55288;SDS011;41154;45.394;5.734;2022-10-16T16:25:05;1.70;;;1.48;;
55288;SDS011;41154;45.394;5.734;2022-10-16T16:27:31;1.83;;;1.63;;
55288;SDS011;41154;45.394;5.734;2022-10-16T16:29:59;2.78;;;1.52;;
55288;SDS011;41154;45.394;5.734;2022-10-16T16:32:26;2.10;;;1.50;;
55288;SDS011;41154;45.394;5.734;2022-10-16T16:34:52;2.38;;;1.45;;
55288;SDS011;41154;45.394;5.734;2022-10-16T16:37:17;4.60;;;1.63;;
55288;SDS011;41154;45.394;5.734;2022-10-16T16:39:43;2.85;;;1.70;;
55288;SDS011;41154;45.394;5.734;2022-10-16T16:42:09;1.85;;;1.38;;
55288;SDS011;41154;45.394;5.734;2022-10-16T16:44:35;3.55;;;1.70;;
55288;SDS011;41154;45.394;5.734;2022-10-16T16:47:02;2.15;;;1.50;;
55288;SDS011;41154;45.394;5.734;2022-10-16T16:49:28;4.85;;;1.70;;
55288;SDS011;41154;45.394;5.734;2022-10-16T16:51:54;4.07;;;1.40;;
55288;SDS011;41154;45.394;5.734;2022-10-16T16:54:20;2.83;;;1.90;;
55288;SDS011;41154;45.394;5.734;2022-10-16T16:56:46;3.25;;;1.73;;
55288;SDS011;41154;45.394;5.734;2022-10-16T16:59:12;5.63;;;1.52;;
55288;SDS011;41154;45.394;5.734;2022-10-16T17:01:40;2.58;;;1.60;;
55288;SDS011;41154;45.394;5.734;2022-10-16T17:04:05;6.93;;;1.83;;